createdAt,value
2017-05-28T00:01:57.871Z,59.80
2017-05-28T00:04:26.175Z,60.20
2017-05-28T00:06:54.523Z,60.80
2017-05-28T00:11:51.328Z,61.30
2017-05-28T00:14:19.322Z,61.50
2017-05-28T00:16:47.261Z,61.70
2017-05-28T00:19:15.583Z,62.20
2017-05-28T00:21:43.935Z,61.80
2017-05-28T00:24:12.231Z,62.30
2017-05-28T00:26:41.275Z,62.90
2017-05-28T00:29:09.475Z,62.90
2017-05-28T00:31:37.404Z,63.60
2017-05-28T00:34:05.336Z,63.60
2017-05-28T00:41:31.825Z,64.10
2017-05-28T00:43:59.825Z,64.70
2017-05-28T00:46:28.136Z,64.90
2017-05-28T00:48:56.437Z,65.00
2017-05-28T00:51:24.779Z,64.80
2017-05-28T00:53:53.443Z,65.80
2017-05-28T00:58:51.411Z,65.90
2017-05-28T01:01:19.719Z,65.80
2017-05-28T01:03:47.647Z,66.60
2017-05-28T01:08:45.267Z,66.80
2017-05-28T01:11:13.567Z,67.00
2017-05-28T01:13:41.919Z,67.90
2017-05-28T01:18:39.471Z,66.80
2017-05-28T01:21:07.451Z,68.10
2017-05-28T01:23:35.751Z,68.70
2017-05-28T01:26:03.688Z,68.90
2017-05-28T01:28:32.039Z,69.10
2017-05-28T01:31:00.718Z,68.30
2017-05-28T01:33:28.668Z,69.60
2017-05-28T01:35:56.778Z,69.80
2017-05-28T01:38:25.079Z,69.80
2017-05-28T01:40:53.007Z,70.40
2017-05-28T01:43:21.351Z,70.40
2017-05-28T01:45:49.647Z,70.90
2017-05-28T01:50:46.897Z,71.30
2017-05-28T01:53:15.203Z,71.20
2017-05-28T01:55:43.135Z,71.60
2017-05-28T02:00:40.359Z,72.10
2017-05-28T02:03:09.404Z,72.00
2017-05-28T02:05:37.752Z,72.40
2017-05-28T02:08:05.688Z,71.90
2017-05-28T02:10:33.986Z,72.00
2017-05-28T02:13:02.340Z,72.30
2017-05-28T02:15:30.279Z,72.40
2017-05-28T02:17:58.595Z,72.40
2017-05-28T02:20:26.939Z,73.00
2017-05-28T02:22:55.237Z,72.90
2017-05-28T02:25:23.538Z,72.80
2017-05-28T02:27:51.515Z,72.70
2017-05-28T02:30:20.554Z,72.50
2017-05-28T02:32:48.867Z,72.70
2017-05-28T02:35:17.399Z,72.90
2017-05-28T02:40:14.979Z,73.20
2017-05-28T02:42:43.434Z,73.80
2017-05-28T02:45:11.372Z,73.60
2017-05-28T02:47:39.308Z,73.70
2017-05-28T02:50:07.974Z,74.00
2017-05-28T02:52:35.908Z,73.70
2017-05-28T02:55:04.583Z,74.20
2017-05-28T02:57:32.927Z,75.10
2017-05-28T03:00:00.890Z,74.50
2017-05-28T03:02:28.828Z,74.70
2017-05-28T03:04:57.222Z,74.50
2017-05-28T03:07:25.167Z,74.90
2017-05-28T03:09:54.455Z,75.40
2017-05-28T03:12:22.826Z,75.10
2017-05-28T03:14:50.759Z,74.60
2017-05-28T03:17:18.703Z,74.80
2017-05-28T03:19:46.701Z,75.10
2017-05-28T03:27:13.295Z,75.60
2017-05-28T03:29:41.223Z,75.50
2017-05-28T03:34:38.459Z,75.80
2017-05-28T03:39:36.059Z,75.50
2017-05-28T03:42:04.404Z,76.00
2017-05-28T03:44:32.713Z,76.00
2017-05-28T03:47:01.022Z,76.10
2017-05-28T03:49:29.402Z,76.30
2017-05-28T03:51:57.346Z,77.00
2017-05-28T03:54:25.656Z,76.90
2017-05-28T03:56:54.758Z,77.30
2017-05-28T03:59:22.698Z,77.20
2017-05-28T04:01:50.639Z,76.80
2017-05-28T04:04:18.996Z,76.90
2017-05-28T04:06:47.307Z,77.40
2017-05-28T04:09:15.240Z,77.10
2017-05-28T04:11:43.223Z,77.50
2017-05-28T04:14:11.526Z,77.10
2017-05-28T04:16:39.839Z,77.60
2017-05-28T04:19:08.186Z,77.40
2017-05-28T04:21:36.123Z,77.20
2017-05-28T04:24:04.802Z,76.90
2017-05-28T04:26:32.877Z,76.70
2017-05-28T04:29:00.824Z,76.70
2017-05-28T04:31:29.147Z,76.90
2017-05-28T04:33:57.503Z,76.60
2017-05-28T04:36:25.439Z,76.70
2017-05-28T04:38:54.488Z,77.40
2017-05-28T04:41:22.739Z,77.60
2017-05-28T04:43:50.675Z,77.40
2017-05-28T04:46:18.988Z,78.30
2017-05-28T04:48:46.971Z,77.50
2017-05-28T04:51:14.915Z,78.20
2017-05-28T04:53:43.223Z,78.00
2017-05-28T04:56:11.578Z,78.00
2017-05-28T04:58:39.514Z,77.50
2017-05-28T05:01:07.820Z,77.40
2017-05-28T05:03:36.176Z,77.00
2017-05-28T05:13:56.043Z,77.30
2017-05-28T05:16:24.355Z,78.10
2017-05-28T05:18:52.334Z,77.80
2017-05-28T05:21:20.262Z,80.10
2017-05-28T05:23:48.579Z,81.40
2017-05-28T05:26:16.564Z,83.30
2017-05-28T05:28:44.876Z,83.70
2017-05-28T05:31:12.823Z,84.00
2017-05-28T05:33:40.815Z,85.10
2017-05-28T05:36:09.191Z,86.30
2017-05-28T05:38:37.494Z,88.10
2017-05-28T05:41:06.223Z,90.80
2017-05-28T05:46:04.155Z,92.00
2017-05-28T05:48:32.536Z,92.40
2017-05-28T05:51:00.853Z,92.20
2017-05-28T05:53:28.807Z,93.10
2017-05-28T05:55:57.164Z,93.30
2017-05-28T05:58:25.475Z,93.10
2017-05-28T06:00:54.159Z,93.10
2017-05-28T06:03:22.850Z,93.20
2017-05-28T06:05:51.154Z,93.80
2017-05-28T06:08:19.460Z,94.70
2017-05-28T06:13:16.690Z,94.70
2017-05-28T06:15:44.998Z,95.20
2017-05-28T06:18:12.983Z,95.10
2017-05-28T06:20:41.291Z,95.30
2017-05-28T06:23:09.603Z,95.50
2017-05-28T06:25:38.335Z,95.60
2017-05-28T06:28:06.644Z,95.60
2017-05-28T06:33:04.644Z,96.20
2017-05-28T06:35:32.594Z,95.50
2017-05-28T06:40:30.223Z,94.70
2017-05-28T06:42:58.176Z,94.00
2017-05-28T06:45:26.490Z,93.10
2017-05-28T06:47:54.479Z,92.40
2017-05-28T06:50:22.419Z,91.60
2017-05-28T06:52:50.355Z,92.70
2017-05-28T06:55:18.711Z,92.60
2017-05-28T06:57:46.647Z,91.10
2017-05-28T07:00:14.954Z,92.00
2017-05-28T07:02:43.332Z,90.90
2017-05-28T07:05:11.639Z,87.00
2017-05-28T07:07:39.575Z,83.60
2017-05-28T07:10:07.922Z,84.90
2017-05-28T07:12:36.606Z,85.70
2017-05-28T07:15:05.655Z,84.90
2017-05-28T07:17:33.643Z,85.20
2017-05-28T07:20:01.955Z,84.70
2017-05-28T07:22:29.910Z,84.20
2017-05-28T07:24:58.298Z,84.30
2017-05-28T07:27:26.638Z,82.10
2017-05-28T07:29:54.943Z,85.60
2017-05-28T07:32:23.319Z,84.70
2017-05-28T07:37:20.519Z,85.60
2017-05-28T07:39:48.527Z,85.40
2017-05-28T07:42:16.835Z,81.30
2017-05-28T07:44:45.951Z,86.10
2017-05-28T07:47:14.307Z,86.90
2017-05-28T07:52:12.290Z,83.40
2017-05-28T07:54:40.271Z,84.20
2017-05-28T07:57:08.215Z,86.50
2017-05-28T08:02:05.478Z,85.50
2017-05-28T08:04:33.803Z,86.30
2017-05-28T08:07:01.756Z,83.50
2017-05-28T08:09:30.150Z,81.10
2017-05-28T08:11:58.481Z,81.20
2017-05-28T08:14:26.788Z,83.10
2017-05-28T08:19:24.418Z,83.80
2017-05-28T08:21:52.728Z,84.30
2017-05-28T08:24:20.711Z,84.20
2017-05-28T08:26:49.021Z,83.20
2017-05-28T08:29:17.333Z,83.50
2017-05-28T08:31:46.071Z,84.30
2017-05-28T08:34:14.009Z,85.80
2017-05-28T08:36:41.947Z,86.30
2017-05-28T08:39:10.650Z,86.10
2017-05-28T08:41:38.580Z,87.90
2017-05-28T08:44:06.519Z,87.30
2017-05-28T08:46:35.606Z,87.40
2017-05-28T08:49:03.911Z,87.30
2017-05-28T08:51:31.855Z,88.30
2017-05-28T08:54:00.603Z,89.00
2017-05-28T08:58:58.562Z,90.00
2017-05-28T09:01:26.948Z,90.50
2017-05-28T09:06:24.519Z,90.20
2017-05-28T09:08:53.241Z,90.60
2017-05-28T09:11:21.179Z,90.70
2017-05-28T09:13:50.231Z,91.00
2017-05-28T09:18:47.938Z,90.90
2017-05-28T09:21:16.255Z,90.80
2017-05-28T09:23:44.239Z,90.80
2017-05-28T09:26:12.549Z,91.60
2017-05-28T09:28:41.595Z,91.50
2017-05-28T09:31:09.591Z,91.30
2017-05-28T09:33:37.896Z,91.70
2017-05-28T09:36:05.830Z,91.70
2017-05-28T09:38:33.815Z,91.60
2017-05-28T09:41:02.131Z,91.70
2017-05-28T09:43:30.071Z,91.90
2017-05-28T09:45:58.513Z,91.80
2017-05-28T09:48:26.427Z,91.50
2017-05-28T09:50:54.727Z,92.00
2017-05-28T09:53:23.079Z,91.90
2017-05-28T09:55:51.386Z,92.00
2017-05-28T09:58:19.695Z,92.10
2017-05-28T10:00:48.059Z,92.90
2017-05-28T10:03:15.997Z,93.00
2017-05-28T10:05:44.298Z,93.60
2017-05-28T10:08:12.651Z,93.50
2017-05-28T10:10:41.332Z,93.30
2017-05-28T10:13:09.639Z,93.80
2017-05-28T10:15:37.991Z,93.50
2017-05-28T10:18:06.303Z,94.40
2017-05-28T10:20:34.606Z,94.10
2017-05-28T10:25:32.223Z,93.60
2017-05-28T10:28:00.163Z,94.40
2017-05-28T10:30:28.863Z,94.90
2017-05-28T10:32:57.175Z,91.60
2017-05-28T10:35:25.106Z,90.60
2017-05-28T10:37:53.972Z,90.60
2017-05-28T10:45:20.098Z,88.50
2017-05-28T10:47:48.034Z,88.90
2017-05-28T10:50:17.087Z,89.90
2017-05-28T10:57:43.598Z,93.10
2017-05-28T11:00:11.607Z,91.70
2017-05-28T11:02:39.535Z,91.50
2017-05-28T11:05:57.849Z,89.90
2017-05-28T11:08:26.167Z,89.40
2017-05-28T11:10:54.474Z,89.00
2017-05-28T11:13:22.819Z,88.90
2017-05-28T11:15:50.756Z,87.80
2017-05-28T11:18:19.084Z,87.90
2017-05-28T11:20:47.825Z,87.50
2017-05-28T11:23:19.088Z,86.90
2017-05-28T11:25:47.807Z,87.70
2017-05-28T11:28:16.146Z,83.70
2017-05-28T11:33:12.984Z,84.30
2017-05-28T11:35:41.340Z,84.20
2017-05-28T11:38:09.276Z,82.20
2017-05-28T11:40:37.208Z,84.60
2017-05-28T11:43:05.646Z,80.80
2017-05-28T11:45:33.595Z,83.20
2017-05-28T11:48:01.915Z,79.80
2017-05-28T11:50:29.919Z,78.80
2017-05-28T11:52:58.258Z,80.20
2017-05-28T11:55:26.574Z,76.00
2017-05-28T11:57:54.590Z,79.30
2017-05-28T12:07:49.643Z,75.90
2017-05-28T12:12:47.274Z,70.00
2017-05-28T12:17:45.251Z,69.60
2017-05-28T12:20:13.275Z,73.30
2017-05-28T12:22:41.211Z,63.80
2017-05-28T12:25:09.519Z,63.30
2017-05-28T12:27:37.510Z,65.10
2017-05-28T12:30:05.827Z,65.80
2017-05-28T12:32:33.768Z,70.60
2017-05-28T12:35:02.159Z,70.60
2017-05-28T12:37:30.493Z,64.70
2017-05-28T12:40:00.534Z,65.60
2017-05-28T12:42:28.944Z,62.00
2017-05-28T12:44:57.260Z,56.20
2017-05-28T12:47:25.568Z,58.20
2017-05-28T12:49:53.556Z,57.80
2017-05-28T12:52:21.855Z,55.10
2017-05-28T12:54:50.163Z,57.80
2017-05-28T12:59:47.060Z,58.60
2017-05-28T13:02:14.988Z,55.20
2017-05-28T13:04:43.342Z,52.50
2017-05-28T13:07:11.288Z,56.50
2017-05-28T13:09:39.220Z,53.30
2017-05-28T13:12:08.329Z,49.70
2017-05-28T13:14:36.630Z,53.30
2017-05-28T13:19:34.237Z,52.40
2017-05-28T13:22:03.298Z,54.80
2017-05-28T13:29:30.231Z,51.90
2017-05-28T13:31:58.575Z,53.40
2017-05-28T13:34:26.593Z,51.50
2017-05-28T13:36:54.533Z,53.60
2017-05-28T13:39:22.836Z,55.00
2017-05-28T13:41:50.840Z,53.90
2017-05-28T13:44:19.147Z,55.10
2017-05-28T13:46:47.107Z,52.20
2017-05-28T13:49:15.459Z,52.30
2017-05-28T13:51:43.396Z,54.60
2017-05-28T13:54:11.327Z,53.40
2017-05-28T13:56:39.704Z,52.70
2017-05-28T13:59:08.003Z,51.50
2017-05-28T14:01:36.304Z,53.20
2017-05-28T14:04:04.658Z,52.30
2017-05-28T14:06:32.591Z,54.60
2017-05-28T14:09:00.903Z,55.80
2017-05-28T14:11:29.269Z,56.80
2017-05-28T14:13:57.640Z,56.10
2017-05-28T14:16:25.567Z,56.00
2017-05-28T14:18:54.660Z,56.60
2017-05-28T14:26:21.147Z,54.40
2017-05-28T14:28:49.087Z,57.50
2017-05-28T14:31:17.039Z,57.10
2017-05-28T14:33:45.387Z,57.90
2017-05-28T14:36:13.694Z,58.20
2017-05-28T14:38:41.619Z,57.80
2017-05-28T14:41:10.100Z,56.30
2017-05-28T14:43:38.031Z,59.20
2017-05-28T14:46:06.331Z,60.00
2017-05-28T14:48:34.675Z,59.80
2017-05-28T14:51:02.988Z,56.50
2017-05-28T14:56:00.409Z,56.20
2017-05-28T14:58:28.401Z,59.10
2017-05-28T15:00:56.335Z,59.00
2017-05-28T15:03:24.709Z,58.90
2017-05-28T15:05:52.650Z,58.60
2017-05-28T15:08:20.575Z,58.40
2017-05-28T15:10:48.971Z,56.60
2017-05-28T15:13:16.919Z,57.80
2017-05-28T15:18:39.867Z,58.40
2017-05-28T15:21:07.807Z,56.90
2017-05-28T15:23:35.744Z,58.20
2017-05-28T15:26:04.116Z,58.60
2017-05-28T15:28:32.806Z,57.90
2017-05-28T15:33:31.188Z,55.00
2017-05-28T15:35:59.885Z,57.40
2017-05-28T15:38:28.215Z,56.40
2017-05-28T15:40:56.199Z,57.40
2017-05-28T15:43:24.511Z,58.10
2017-05-28T15:45:52.436Z,59.70
2017-05-28T15:48:20.786Z,57.50
2017-05-28T15:50:48.752Z,58.20
2017-05-28T15:53:16.697Z,58.70
2017-05-28T15:55:45.055Z,58.80
2017-05-28T15:58:12.994Z,60.50
2017-05-28T16:00:42.047Z,57.40
2017-05-28T16:03:10.663Z,58.50
2017-05-28T16:05:38.977Z,58.70
2017-05-28T16:08:08.027Z,58.50
2017-05-28T16:10:36.403Z,60.40
2017-05-28T16:13:04.807Z,59.10
2017-05-28T16:15:33.885Z,59.00
2017-05-28T16:18:02.071Z,58.50
2017-05-28T16:25:28.424Z,62.10
2017-05-28T16:27:56.755Z,61.10
2017-05-28T16:30:25.069Z,59.70
2017-05-28T16:35:22.711Z,60.20
2017-05-28T16:37:50.639Z,61.20
2017-05-28T16:40:18.987Z,60.20
2017-05-28T16:42:47.303Z,60.90
2017-05-28T16:45:15.610Z,60.30
2017-05-28T16:47:44.327Z,61.20
2017-05-28T16:50:12.632Z,62.00
2017-05-28T16:52:40.558Z,60.50
2017-05-28T16:55:09.660Z,61.20
2017-05-28T16:57:37.961Z,61.60
2017-05-28T17:00:05.913Z,61.80
2017-05-28T17:02:33.999Z,63.60
2017-05-28T17:05:01.971Z,64.10
2017-05-28T17:07:30.275Z,65.40
2017-05-28T17:09:58.321Z,62.70
2017-05-28T17:12:26.263Z,65.40
2017-05-28T17:14:54.570Z,65.70
2017-05-28T17:17:22.556Z,64.40
2017-05-28T17:19:50.859Z,63.30
2017-05-28T17:22:18.787Z,63.60
2017-05-28T17:24:47.154Z,62.70
2017-05-28T17:27:15.456Z,62.30
2017-05-28T17:29:43.764Z,64.80
2017-05-28T17:32:11.746Z,63.70
2017-05-28T17:34:40.062Z,66.00
2017-05-28T17:37:08.363Z,64.80
2017-05-28T17:39:36.747Z,65.60
2017-05-28T17:42:04.687Z,65.90
2017-05-28T17:44:33.738Z,65.90
2017-05-28T17:52:00.323Z,67.70
2017-05-28T17:54:28.335Z,69.60
2017-05-28T17:56:56.272Z,69.60
2017-05-28T17:59:24.579Z,70.20
2017-05-28T18:01:52.576Z,70.20
2017-05-28T18:04:20.911Z,70.60
2017-05-28T18:06:49.223Z,70.50
2017-05-28T18:09:17.208Z,70.90
2017-05-28T18:11:45.514Z,71.40
2017-05-28T18:14:13.824Z,71.30
2017-05-28T18:16:42.171Z,72.00
2017-05-28T18:19:10.111Z,72.40
2017-05-28T18:24:07.798Z,71.70
2017-05-28T18:26:35.744Z,71.20
2017-05-28T18:29:03.690Z,72.10
2017-05-28T18:34:00.928Z,72.30
2017-05-28T18:36:28.868Z,71.60
2017-05-28T18:41:26.471Z,71.60
2017-05-28T18:43:54.772Z,70.90
2017-05-28T18:46:22.765Z,70.20
2017-05-28T18:48:51.059Z,69.80
2017-05-28T18:51:19.355Z,71.30
2017-05-28T18:58:46.033Z,71.90
2017-05-28T19:01:14.412Z,71.40
2017-05-28T19:03:42.486Z,71.80
2017-05-28T19:06:10.558Z,71.80
2017-05-28T19:11:07.876Z,72.90
2017-05-28T19:13:35.811Z,73.30
2017-05-28T19:16:04.159Z,73.60
2017-05-28T19:18:32.085Z,73.90
2017-05-28T19:21:00.022Z,72.80
2017-05-28T19:23:28.370Z,73.50
2017-05-28T19:25:56.308Z,74.20
2017-05-28T19:28:24.615Z,74.70
2017-05-28T19:30:53.703Z,75.10
2017-05-28T19:33:23.395Z,75.60
2017-05-28T19:35:51.702Z,75.10
2017-05-28T19:38:19.676Z,74.00
2017-05-28T19:40:47.989Z,74.90
2017-05-28T19:43:15.932Z,75.40
2017-05-28T19:48:13.184Z,76.10
2017-05-28T19:50:41.482Z,75.10
2017-05-28T19:56:03.759Z,76.60
2017-05-28T19:58:31.692Z,76.60
2017-05-28T20:01:00.026Z,76.90
2017-05-28T20:03:28.015Z,77.30
2017-05-28T20:05:56.739Z,77.50
2017-05-28T20:10:53.712Z,76.90
2017-05-28T20:15:51.003Z,78.00
2017-05-28T20:18:19.074Z,77.70
2017-05-28T20:20:47.372Z,78.40
2017-05-28T20:23:15.672Z,78.20
2017-05-28T20:25:44.023Z,79.00
2017-05-28T20:28:12.323Z,79.00
2017-05-28T20:33:09.579Z,78.60
2017-05-28T20:35:37.510Z,79.20
2017-05-28T20:38:05.438Z,79.30
2017-05-28T20:40:33.798Z,79.50
2017-05-28T20:43:01.739Z,79.70
2017-05-28T20:45:30.039Z,80.10
2017-05-28T20:50:27.463Z,80.90
2017-05-28T20:52:56.529Z,80.80
2017-05-28T20:55:24.899Z,80.70
2017-05-28T20:57:53.230Z,81.40
2017-05-28T21:00:21.188Z,82.00
2017-05-28T21:02:49.539Z,82.00
2017-05-28T21:07:47.111Z,81.60
2017-05-28T21:10:15.099Z,81.70
2017-05-28T21:12:43.074Z,82.00
2017-05-28T21:15:11.399Z,82.90
2017-05-28T21:17:39.423Z,83.10
2017-05-28T21:20:07.364Z,82.50
2017-05-28T21:22:36.055Z,82.70
2017-05-28T21:25:04.411Z,83.00
2017-05-28T21:27:32.711Z,83.00
2017-05-28T21:32:30.335Z,83.20
2017-05-28T21:34:58.643Z,83.10
2017-05-28T21:37:26.594Z,82.60
2017-05-28T21:39:54.943Z,83.20
2017-05-28T21:42:23.294Z,83.00
2017-05-28T21:44:51.620Z,82.60
2017-05-28T21:47:19.703Z,83.00
2017-05-28T21:49:48.006Z,83.10
2017-05-28T21:52:17.046Z,83.90
2017-05-28T21:54:45.023Z,83.90
2017-05-28T21:57:13.326Z,83.90
2017-05-28T21:59:41.264Z,83.60
2017-05-28T22:02:09.620Z,84.40
2017-05-28T22:04:37.564Z,84.40
2017-05-28T22:07:05.507Z,84.90
2017-05-28T22:09:33.891Z,84.90
2017-05-28T22:12:01.856Z,84.70
2017-05-28T22:14:30.171Z,85.10
2017-05-28T22:16:58.519Z,85.00
2017-05-28T22:19:26.472Z,85.40
2017-05-28T22:21:54.801Z,85.10
2017-05-28T22:24:23.185Z,85.00
2017-05-28T22:26:51.516Z,84.70
2017-05-28T22:29:19.450Z,85.00
2017-05-28T22:31:47.800Z,84.60
2017-05-28T22:34:16.843Z,84.30
2017-05-28T22:36:44.786Z,84.80
2017-05-28T22:39:13.157Z,85.90
2017-05-28T22:41:41.107Z,86.10
2017-05-28T22:44:09.050Z,86.20
2017-05-28T22:46:37.403Z,86.50
2017-05-28T22:49:05.343Z,86.50
2017-05-28T22:51:33.643Z,86.90
2017-05-28T22:54:01.990Z,87.20
2017-05-28T22:56:30.291Z,87.50
2017-05-28T22:58:58.227Z,86.80
2017-05-28T23:01:26.582Z,87.20
2017-05-28T23:03:54.907Z,86.90
2017-05-28T23:06:23.241Z,86.30
2017-05-28T23:08:51.286Z,86.60
2017-05-28T23:11:19.606Z,86.70
2017-05-28T23:13:47.914Z,86.40
2017-05-28T23:16:16.639Z,86.60
2017-05-28T23:18:44.571Z,86.90
2017-05-28T23:21:12.507Z,86.80
2017-05-28T23:23:41.249Z,86.40
2017-05-28T23:26:09.199Z,86.50
2017-05-28T23:28:37.135Z,86.90
2017-05-28T23:31:05.855Z,87.00
2017-05-28T23:33:34.166Z,87.30
2017-05-28T23:36:02.486Z,87.60
2017-05-28T23:38:30.836Z,88.30
2017-05-28T23:40:59.147Z,87.90
2017-05-28T23:45:57.170Z,88.00
2017-05-28T23:48:25.112Z,88.10
2017-05-28T23:50:54.182Z,88.60
2017-05-28T23:55:57.859Z,88.70
2017-05-28T23:58:26.596Z,88.40
